Terminal Aerodrome Forecast
Issued by NWS

Home | Current Version | Previous Version | Text Only | Print | Product List | Glossary On
Versions: 1 2 3 4 5 6 7 8 9 10 11 12 13 14 15 16 17 18 19 20
000
FTUS44 KLZK 061700
TAFBPK
TAF
KBPK 061732Z 0618/0718 24008KT P6SM FEW028 FEW080
      TEMPO 0618/0620 BKN025
     FM070300 18004KT P6SM SCT050 BKN100
     FM071200 20008KT P6SM OVC050=

USA.gov is the U.S. government's official web portal to all federal, state and local government web resources and services.